createdAt,value
2018-12-06T00:01:39.197Z,3.80
2018-12-06T00:04:25.764Z,3.17
2018-12-06T00:07:11.002Z,3.90
2018-12-06T00:09:40.078Z,3.87
2018-12-06T00:12:09.712Z,4.13
2018-12-06T00:14:38.879Z,4.03
2018-12-06T00:17:08.089Z,4.70
2018-12-06T00:19:37.210Z,4.50
2018-12-06T00:22:06.365Z,4.57
2018-12-06T00:24:35.402Z,5.00
2018-12-06T00:27:04.519Z,5.17
2018-12-06T00:29:33.699Z,4.10
2018-12-06T00:32:03.078Z,4.43
2018-12-06T00:34:32.164Z,5.10
2018-12-06T00:37:01.429Z,4.53
2018-12-06T00:39:30.749Z,4.83
2018-12-06T00:41:59.837Z,5.07
2018-12-06T00:44:29.039Z,4.17
2018-12-06T00:46:58.354Z,5.33
2018-12-06T00:49:27.648Z,4.13
2018-12-06T00:51:57.705Z,5.33
2018-12-06T00:54:27.061Z,4.13
2018-12-06T00:56:56.986Z,3.87
2018-12-06T00:59:26.587Z,2.90
2018-12-06T01:01:55.751Z,4.70
2018-12-06T01:04:24.974Z,2.80
2018-12-06T01:06:54.124Z,3.90
2018-12-06T01:09:23.613Z,2.57
2018-12-06T01:11:52.893Z,1.80
2018-12-06T01:14:22.174Z,1.77
2018-12-06T01:16:51.305Z,1.13
2018-12-06T01:19:20.384Z,0.90
2018-12-06T01:21:49.450Z,0.93
2018-12-06T01:24:18.545Z,1.00
2018-12-06T01:26:47.640Z,0.77
2018-12-06T01:29:16.778Z,0.93
2018-12-06T01:31:45.909Z,0.83
2018-12-06T01:34:15.041Z,0.80
2018-12-06T01:36:44.149Z,1.87
2018-12-06T01:39:13.261Z,1.17
2018-12-06T01:41:42.428Z,1.30
2018-12-06T01:44:11.628Z,1.03
2018-12-06T01:46:41.376Z,2.10
2018-12-06T01:49:10.454Z,1.63
2018-12-06T01:51:39.629Z,1.00
2018-12-06T01:54:08.970Z,0.93
2018-12-06T01:56:39.017Z,1.70
2018-12-06T01:59:08.147Z,0.73
2018-12-06T02:01:37.288Z,0.83
2018-12-06T02:04:06.478Z,1.07
2018-12-06T02:06:35.723Z,0.83
2018-12-06T02:09:06.193Z,1.77
2018-12-06T02:11:35.339Z,0.87
2018-12-06T02:14:04.451Z,1.47
2018-12-06T02:16:33.632Z,1.00
2018-12-06T02:19:02.811Z,1.70
2018-12-06T02:21:31.939Z,1.30
2018-12-06T02:24:01.086Z,1.23
2018-12-06T02:26:30.341Z,1.43
2018-12-06T02:28:59.544Z,1.67
2018-12-06T02:31:28.706Z,1.53
2018-12-06T02:33:57.833Z,2.17
2018-12-06T03:05:59.189Z,0.47
2018-12-06T03:08:29.251Z,0.40
2018-12-06T03:10:58.320Z,0.40
2018-12-06T03:13:27.381Z,0.50
2018-12-06T03:15:56.428Z,0.30
2018-12-06T03:18:25.593Z,0.67
2018-12-06T03:20:54.975Z,0.40
2018-12-06T03:23:24.092Z,0.43
2018-12-06T03:25:53.184Z,0.60
2018-12-06T03:28:23.350Z,0.80
2018-12-06T03:30:52.439Z,1.17
2018-12-06T03:33:21.625Z,0.90
2018-12-06T03:35:50.776Z,0.80
2018-12-06T03:38:19.969Z,1.10
2018-12-06T03:40:48.979Z,0.60
2018-12-06T03:43:18.501Z,0.80
2018-12-06T03:45:47.600Z,0.90
2018-12-06T03:48:16.662Z,1.07
2018-12-06T03:50:45.724Z,0.40
2018-12-06T03:53:14.803Z,0.40
2018-12-06T03:55:43.881Z,0.53
2018-12-06T03:58:12.974Z,0.37
2018-12-06T04:00:42.060Z,0.40
2018-12-06T04:03:11.243Z,0.30
2018-12-06T04:05:40.289Z,0.30
2018-12-06T04:08:09.349Z,0.30
2018-12-06T04:10:38.372Z,0.90
2018-12-06T04:13:07.462Z,0.30
2018-12-06T04:15:36.496Z,0.77
2018-12-06T04:18:05.734Z,0.40
2018-12-06T04:20:34.905Z,0.50
2018-12-06T04:23:03.967Z,0.47
2018-12-06T04:25:33.108Z,0.40
2018-12-06T04:28:02.182Z,0.97
2018-12-06T04:30:31.242Z,0.47
2018-12-06T04:33:00.305Z,0.60
2018-12-06T04:35:29.502Z,0.40
2018-12-06T04:37:58.611Z,0.30
2018-12-06T04:40:27.717Z,0.47
2018-12-06T04:42:56.797Z,0.70
2018-12-06T04:45:26.871Z,0.60
2018-12-06T04:47:56.129Z,0.40
2018-12-06T04:50:25.228Z,0.53
2018-12-06T04:52:54.334Z,0.57
2018-12-06T04:55:23.450Z,0.40
2018-12-06T04:57:52.552Z,0.53
2018-12-06T05:00:21.646Z,1.07
2018-12-06T05:02:50.671Z,1.07
2018-12-06T05:05:19.849Z,1.07
2018-12-06T05:07:48.941Z,0.90
2018-12-06T05:10:18.660Z,1.10
2018-12-06T05:12:47.756Z,0.77
2018-12-06T05:15:16.866Z,0.57
2018-12-06T05:17:45.935Z,0.47
2018-12-06T05:20:15.059Z,0.40
2018-12-06T05:22:44.150Z,0.30
2018-12-06T05:25:13.179Z,0.17
2018-12-06T05:27:42.379Z,0.27
2018-12-06T05:30:12.768Z,0.30
2018-12-06T05:32:41.900Z,0.30
2018-12-06T05:35:11.181Z,0.50
2018-12-06T05:37:40.350Z,0.63
2018-12-06T05:40:10.346Z,0.63
2018-12-06T05:42:39.888Z,0.60
2018-12-06T05:45:09.047Z,0.80
2018-12-06T05:47:38.282Z,0.63
2018-12-06T05:50:07.880Z,1.00
2018-12-06T05:52:37.007Z,0.97
2018-12-06T05:55:06.176Z,0.73
2018-12-06T05:57:35.299Z,0.97
2018-12-06T06:00:05.449Z,0.70
2018-12-06T06:02:34.667Z,0.90
2018-12-06T06:05:03.871Z,0.80
2018-12-06T06:07:33.109Z,1.30
2018-12-06T06:10:02.349Z,1.20
2018-12-06T06:12:31.443Z,1.10
2018-12-06T06:15:00.476Z,1.10
2018-12-06T06:17:29.590Z,0.70
2018-12-06T06:19:58.715Z,1.17
2018-12-06T06:22:28.708Z,0.70
2018-12-06T06:24:57.774Z,1.73
2018-12-06T06:27:26.887Z,0.40
2018-12-06T06:29:55.975Z,1.20
2018-12-06T06:32:25.069Z,0.90
2018-12-06T06:34:54.142Z,0.80
2018-12-06T06:37:23.261Z,0.87
2018-12-06T06:39:53.026Z,0.63
2018-12-06T06:42:22.066Z,0.60
2018-12-06T06:44:51.093Z,1.00
2018-12-06T06:47:20.359Z,0.47
2018-12-06T06:49:49.534Z,0.90
2018-12-06T06:52:18.656Z,0.63
2018-12-06T06:54:47.892Z,0.60
2018-12-06T06:57:17.168Z,0.53
2018-12-06T06:59:46.367Z,0.53
2018-12-06T07:02:16.174Z,1.00
2018-12-06T07:04:47.578Z,1.03
2018-12-06T07:07:16.687Z,0.87
2018-12-06T07:09:45.736Z,0.83
2018-12-06T07:12:14.804Z,0.77
2018-12-06T07:14:43.923Z,0.80
2018-12-06T07:17:13.105Z,0.70
2018-12-06T07:19:42.231Z,2.03
2018-12-06T07:22:11.297Z,1.40
2018-12-06T07:24:40.559Z,2.13
2018-12-06T07:27:09.654Z,0.77
2018-12-06T07:29:38.772Z,1.13
2018-12-06T07:32:08.072Z,0.80
2018-12-06T07:34:37.160Z,0.70
2018-12-06T07:37:06.336Z,1.30
2018-12-06T07:39:35.463Z,1.07
2018-12-06T07:42:04.582Z,1.10
2018-12-06T07:44:33.780Z,1.40
2018-12-06T07:47:02.969Z,0.83
2018-12-06T07:49:32.154Z,1.60
2018-12-06T07:52:01.367Z,0.77
2018-12-06T07:54:30.639Z,0.90
2018-12-06T07:56:59.854Z,1.43
2018-12-06T07:59:28.909Z,3.17
2018-12-06T08:01:58.459Z,0.90
2018-12-06T08:04:27.571Z,0.80
2018-12-06T08:06:56.842Z,1.40
2018-12-06T08:09:26.736Z,0.77
2018-12-06T08:11:56.551Z,1.30
2018-12-06T08:14:27.975Z,1.30
2018-12-06T08:16:58.408Z,5.07
2018-12-06T08:19:29.200Z,2.63
2018-12-06T08:22:00.488Z,2.90
2018-12-06T08:36:01.005Z,2.50
2018-12-06T08:38:32.148Z,1.70
2018-12-06T08:41:01.188Z,2.20
2018-12-06T08:43:31.822Z,2.40
2018-12-06T08:45:59.656Z,1.70
2018-12-06T08:48:29.066Z,3.77
2018-12-06T08:50:59.338Z,1.93
2018-12-06T08:53:28.444Z,1.70
2018-12-06T08:55:58.595Z,1.93
2018-12-06T08:58:27.795Z,2.03
2018-12-06T09:00:57.021Z,2.50
2018-12-06T09:03:26.318Z,1.70
2018-12-06T09:05:55.696Z,2.27
2018-12-06T09:08:24.888Z,1.80
2018-12-06T09:10:54.398Z,2.93
2018-12-06T09:13:23.717Z,3.17
2018-12-06T09:15:53.011Z,2.97
2018-12-06T09:18:22.207Z,2.60
2018-12-06T09:20:51.589Z,3.20
2018-12-06T09:23:20.752Z,3.60
2018-12-06T09:25:49.916Z,3.17
2018-12-06T09:28:19.106Z,2.50
2018-12-06T09:30:49.646Z,3.37
2018-12-06T09:33:18.833Z,3.53
2018-12-06T09:35:48.187Z,3.07
2018-12-06T09:38:17.435Z,3.57
2018-12-06T09:40:46.629Z,2.50
2018-12-06T09:43:15.745Z,4.33
2018-12-06T09:45:45.005Z,2.67
2018-12-06T09:48:14.191Z,2.63
2018-12-06T09:50:43.336Z,1.97
2018-12-06T09:53:12.773Z,3.70
2018-12-06T09:55:42.032Z,1.63
2018-12-06T09:58:11.137Z,1.50
2018-12-06T10:00:40.196Z,1.77
2018-12-06T10:03:12.630Z,1.83
2018-12-06T10:05:41.899Z,1.57
2018-12-06T10:08:11.156Z,1.20
2018-12-06T10:10:40.402Z,1.33
2018-12-06T10:13:09.468Z,1.50
2018-12-06T10:15:38.535Z,1.07
2018-12-06T10:18:07.658Z,1.23
2018-12-06T10:20:37.121Z,1.30
2018-12-06T10:23:06.445Z,1.53
2018-12-06T10:25:35.969Z,1.30
2018-12-06T10:28:05.340Z,1.53
2018-12-06T10:30:34.504Z,1.37
2018-12-06T10:33:03.583Z,1.70
2018-12-06T10:35:32.671Z,1.60
2018-12-06T10:38:01.830Z,2.10
2018-12-06T10:40:31.426Z,1.43
2018-12-06T10:43:01.611Z,2.30
2018-12-06T10:45:31.515Z,2.07
2018-12-06T10:48:00.567Z,1.70
2018-12-06T10:50:29.864Z,1.73
2018-12-06T10:52:59.048Z,1.70
2018-12-06T10:55:28.331Z,1.70
2018-12-06T10:57:57.563Z,1.30
2018-12-06T11:02:42.242Z,2.47
2018-12-06T11:05:12.517Z,1.20
2018-12-06T11:08:04.690Z,1.70
2018-12-06T11:10:34.146Z,1.63
2018-12-06T11:13:03.329Z,1.30
2018-12-06T11:15:32.551Z,2.27
2018-12-06T11:18:01.877Z,1.10
2018-12-06T11:20:31.024Z,2.10
2018-12-06T11:23:00.191Z,1.87
2018-12-06T11:25:29.335Z,2.03
2018-12-06T11:27:58.526Z,2.50
2018-12-06T11:30:27.627Z,1.67
2018-12-06T11:32:56.739Z,2.50
2018-12-06T11:35:26.517Z,2.40
2018-12-06T11:37:55.567Z,2.73
2018-12-06T11:40:24.888Z,3.90
2018-12-06T11:42:54.217Z,3.73
2018-12-06T11:45:23.537Z,1.80
2018-12-06T11:47:52.827Z,1.57
2018-12-06T11:50:22.970Z,2.00
2018-12-06T11:52:52.099Z,1.87
2018-12-06T11:55:21.472Z,2.37
2018-12-06T11:57:50.451Z,2.13
2018-12-06T12:00:19.675Z,1.57
2018-12-06T12:02:48.886Z,1.90
2018-12-06T12:05:17.970Z,2.17
2018-12-06T12:07:47.353Z,2.23
2018-12-06T12:10:16.550Z,1.33
2018-12-06T12:12:49.605Z,1.57
2018-12-06T12:15:18.762Z,2.40
2018-12-06T12:17:49.039Z,1.10
2018-12-06T12:20:18.346Z,1.60
2018-12-06T12:22:47.744Z,2.40
2018-12-06T12:25:17.376Z,0.87
2018-12-06T12:27:48.892Z,0.90
2018-12-06T12:30:19.708Z,2.03
2018-12-06T12:32:49.073Z,1.50
2018-12-06T12:35:18.894Z,2.00
2018-12-06T12:37:47.816Z,2.07
2018-12-06T12:40:17.656Z,1.93
2018-12-06T12:42:47.994Z,1.63
2018-12-06T12:45:17.208Z,2.10
2018-12-06T12:47:46.331Z,1.70
2018-12-06T12:50:15.523Z,3.40
2018-12-06T12:52:44.861Z,1.60
2018-12-06T12:55:14.100Z,1.57
2018-12-06T12:57:43.164Z,4.20
2018-12-06T13:00:12.621Z,1.33
2018-12-06T13:02:41.690Z,0.80
2018-12-06T13:05:10.746Z,0.97
2018-12-06T13:07:39.990Z,1.77
2018-12-06T13:10:09.092Z,1.80
2018-12-06T13:12:38.369Z,2.13
2018-12-06T13:15:09.222Z,1.33
2018-12-06T13:17:38.374Z,1.60
2018-12-06T13:20:07.665Z,1.10
2018-12-06T13:22:36.805Z,1.20
2018-12-06T13:25:06.513Z,2.93
2018-12-06T13:27:35.717Z,1.20
2018-12-06T13:30:05.739Z,1.47
2018-12-06T13:32:34.928Z,1.50
2018-12-06T13:35:04.123Z,1.20
2018-12-06T13:37:33.293Z,1.37
2018-12-06T13:40:02.493Z,2.60
2018-12-06T13:42:31.647Z,4.70
2018-12-06T13:45:00.812Z,2.77
2018-12-06T13:47:34.325Z,5.10
2018-12-06T13:50:06.494Z,1.50
2018-12-06T13:52:35.794Z,1.47
2018-12-06T13:55:05.411Z,2.20
2018-12-06T13:57:35.135Z,0.80
2018-12-06T14:00:04.707Z,2.30
2018-12-06T14:02:33.831Z,1.00
2018-12-06T14:05:03.009Z,2.50
2018-12-06T14:07:35.873Z,1.13
2018-12-06T14:12:39.234Z,2.27
2018-12-06T14:15:09.839Z,2.10
2018-12-06T14:17:39.024Z,3.17
2018-12-06T14:20:09.630Z,4.10
2018-12-06T14:25:13.623Z,4.50
2018-12-06T14:27:42.693Z,2.10
2018-12-06T14:30:11.973Z,2.30
2018-12-06T14:32:41.112Z,2.40
2018-12-06T14:35:10.916Z,1.67
2018-12-06T14:37:40.365Z,1.23
2018-12-06T14:40:09.641Z,1.40
2018-12-06T14:42:39.312Z,1.87
2018-12-06T14:45:09.124Z,2.60
2018-12-06T14:47:38.917Z,1.67
2018-12-06T14:50:08.893Z,2.00
2018-12-06T14:52:38.141Z,1.10
2018-12-06T14:55:07.335Z,1.80
2018-12-06T14:57:36.545Z,1.67
2018-12-06T15:00:07.444Z,1.47
2018-12-06T15:02:37.208Z,1.23
2018-12-06T15:05:08.096Z,2.47
2018-12-06T15:07:37.293Z,1.60
2018-12-06T15:10:07.741Z,1.40
2018-12-06T15:12:36.841Z,1.07
2018-12-06T15:15:06.471Z,1.33
2018-12-06T15:17:35.720Z,1.27
2018-12-06T15:20:05.049Z,3.03
2018-12-06T15:22:34.380Z,1.90
2018-12-06T15:25:06.353Z,1.33
2018-12-06T15:27:37.807Z,1.50
2018-12-06T15:30:05.711Z,1.50
2018-12-06T15:32:34.827Z,1.67
2018-12-06T15:35:04.042Z,1.73
2018-12-06T15:37:33.226Z,1.90
2018-12-06T15:40:03.230Z,1.30
2018-12-06T15:42:32.409Z,2.73
2018-12-06T15:45:01.511Z,1.70
2018-12-06T15:47:30.753Z,1.70
2018-12-06T15:50:00.764Z,1.47
2018-12-06T15:52:29.927Z,1.57
2018-12-06T15:54:59.124Z,1.40
2018-12-06T15:57:29.173Z,1.97
2018-12-06T15:59:58.390Z,2.00
2018-12-06T16:02:27.562Z,2.37
2018-12-06T16:04:56.753Z,1.33
2018-12-06T16:07:26.115Z,1.67
2018-12-06T16:09:55.237Z,1.10
2018-12-06T16:12:24.357Z,1.60
2018-12-06T16:14:53.443Z,1.37
2018-12-06T16:17:22.573Z,0.57
2018-12-06T16:19:51.684Z,1.03
2018-12-06T16:22:21.587Z,1.33
2018-12-06T16:24:51.298Z,1.87
2018-12-06T16:27:31.277Z,2.13
2018-12-06T16:30:00.520Z,0.87
2018-12-06T16:32:35.592Z,1.10
2018-12-06T16:35:17.184Z,1.00
2018-12-06T16:37:47.056Z,1.67
2018-12-06T16:40:16.258Z,0.60
2018-12-06T16:42:45.557Z,1.30
2018-12-06T16:45:14.658Z,1.20
2018-12-06T16:47:44.172Z,1.13
2018-12-06T16:50:13.406Z,1.70
2018-12-06T16:52:42.480Z,0.87
2018-12-06T16:55:11.650Z,2.60
2018-12-06T16:57:40.756Z,1.80
2018-12-06T17:00:14.590Z,1.87
2018-12-06T17:02:42.226Z,1.70
2018-12-06T17:05:11.449Z,2.40
2018-12-06T17:07:41.016Z,1.50
2018-12-06T17:10:10.185Z,0.97
2018-12-06T17:12:39.339Z,1.40
2018-12-06T17:15:09.627Z,0.90
2018-12-06T17:17:39.895Z,0.70
2018-12-06T17:20:13.790Z,0.80
2018-12-06T17:22:42.998Z,1.03
2018-12-06T17:25:13.835Z,0.90
2018-12-06T17:27:42.903Z,0.87
2018-12-06T17:30:13.747Z,1.20
2018-12-06T17:32:42.347Z,0.80
2018-12-06T17:35:11.448Z,0.90
2018-12-06T17:37:40.934Z,2.03
2018-12-06T17:40:10.404Z,0.90
2018-12-06T17:42:40.451Z,4.07
2018-12-06T17:45:10.475Z,1.17
2018-12-06T17:47:39.651Z,0.93
2018-12-06T17:50:09.090Z,1.50
2018-12-06T17:52:38.960Z,0.60
2018-12-06T17:55:08.391Z,1.57
2018-12-06T17:57:37.597Z,2.73
2018-12-06T18:00:08.726Z,2.13
2018-12-06T18:02:37.885Z,1.43
2018-12-06T18:05:07.415Z,1.17
2018-12-06T18:07:36.459Z,1.33
2018-12-06T18:10:06.239Z,2.30
2018-12-06T18:12:35.339Z,2.23
2018-12-06T18:15:04.718Z,1.67
2018-12-06T18:17:33.822Z,1.20
2018-12-06T18:20:03.456Z,1.50
2018-12-06T18:22:33.716Z,2.57
2018-12-06T18:25:03.573Z,2.50
2018-12-06T18:27:32.840Z,2.27
2018-12-06T18:30:02.019Z,1.30
2018-12-06T18:32:31.252Z,1.87
2018-12-06T18:35:05.579Z,1.47
2018-12-06T18:37:34.742Z,1.67
2018-12-06T18:40:04.287Z,1.80
2018-12-06T18:42:33.475Z,2.17
2018-12-06T18:45:02.606Z,2.37
2018-12-06T18:47:31.778Z,2.30
2018-12-06T18:50:00.910Z,2.60
2018-12-06T18:52:30.080Z,2.80
2018-12-06T18:54:59.173Z,2.30
2018-12-06T18:57:28.977Z,2.50
2018-12-06T18:59:59.151Z,2.80
2018-12-06T19:02:28.412Z,2.33
2018-12-06T19:04:57.811Z,2.40
2018-12-06T19:07:27.005Z,2.00
2018-12-06T19:09:57.775Z,3.00
2018-12-06T19:12:33.994Z,1.30
2018-12-06T19:17:28.709Z,1.63
2018-12-06T19:19:59.530Z,1.50
2018-12-06T19:22:30.501Z,1.53
2018-12-06T19:25:01.109Z,1.00
2018-12-06T19:27:34.647Z,1.37
2018-12-06T19:30:04.064Z,1.30
2018-12-06T19:32:33.926Z,1.10
2018-12-06T19:35:03.570Z,1.53
2018-12-06T19:37:34.709Z,1.40
2018-12-06T19:40:05.312Z,0.80
2018-12-06T19:42:38.729Z,0.70
2018-12-06T19:45:03.699Z,1.27
2018-12-06T19:47:32.898Z,1.00
2018-12-06T19:50:02.584Z,1.33
2018-12-06T19:52:31.907Z,1.90
2018-12-06T19:55:01.303Z,1.63
2018-12-06T19:57:35.405Z,0.90
2018-12-06T20:00:04.725Z,1.30
2018-12-06T20:02:34.863Z,0.70
2018-12-06T20:05:04.585Z,1.10
2018-12-06T20:07:34.280Z,1.63
2018-12-06T20:10:04.616Z,1.50
2018-12-06T20:12:34.070Z,1.73
2018-12-06T20:17:42.828Z,1.20
2018-12-06T20:20:23.192Z,1.67
2018-12-06T20:22:46.631Z,3.50
2018-12-06T20:25:18.761Z,7.67
2018-12-06T20:27:48.010Z,6.00
2018-12-06T20:30:17.133Z,6.93
2018-12-06T20:32:46.514Z,4.90
2018-12-06T20:35:16.652Z,6.37
2018-12-06T20:37:47.950Z,2.93
2018-12-06T20:40:17.135Z,1.90
2018-12-06T20:42:48.060Z,1.30
2018-12-06T20:45:17.638Z,1.57
2018-12-06T20:47:46.872Z,1.87
2018-12-06T20:50:16.399Z,1.90
2018-12-06T20:52:46.637Z,2.30
2018-12-06T20:55:15.771Z,1.80
2018-12-06T20:57:44.842Z,2.33
2018-12-06T21:00:14.035Z,1.60
2018-12-06T21:02:43.132Z,0.70
2018-12-06T21:05:12.227Z,4.80
2018-12-06T21:07:41.854Z,1.17
2018-12-06T21:10:10.993Z,0.70
2018-12-06T21:12:41.581Z,0.90
2018-12-06T21:15:10.772Z,1.10
2018-12-06T21:17:39.926Z,0.97
2018-12-06T21:20:13.432Z,0.83
2018-12-06T21:22:44.135Z,1.03
2018-12-06T21:25:13.505Z,1.00
2018-12-06T21:27:48.602Z,1.17
2018-12-06T21:30:17.810Z,0.43
2018-12-06T21:32:46.945Z,0.60
2018-12-06T21:35:16.035Z,0.93
2018-12-06T21:37:45.196Z,1.10
2018-12-06T21:40:14.585Z,0.60
2018-12-06T21:42:45.562Z,1.60
2018-12-06T21:45:15.380Z,0.70
2018-12-06T21:47:48.460Z,0.60
2018-12-06T21:50:17.745Z,0.70
2018-12-06T21:52:47.588Z,1.10
2018-12-06T21:55:18.791Z,1.17
2018-12-06T21:57:48.604Z,0.87
2018-12-06T22:00:18.380Z,0.83
2018-12-06T22:02:48.083Z,0.40
2018-12-06T22:05:17.990Z,0.50
2018-12-06T22:07:47.165Z,0.47
2018-12-06T22:10:16.343Z,1.13
2018-12-06T22:12:46.104Z,0.30
2018-12-06T22:15:15.957Z,0.87
2018-12-06T22:17:45.647Z,0.70
2018-12-06T22:20:15.454Z,1.00
2018-12-06T22:22:44.646Z,1.20
2018-12-06T22:25:13.855Z,0.70
2018-12-06T22:27:46.286Z,0.90
2018-12-06T22:30:20.124Z,0.70
2018-12-06T22:32:49.565Z,1.17
2018-12-06T22:35:18.722Z,1.37
2018-12-06T22:37:48.014Z,0.80
2018-12-06T22:40:18.048Z,0.50
2018-12-06T22:42:47.216Z,0.70
2018-12-06T22:45:55.438Z,0.50
2018-12-06T22:48:24.640Z,0.23
2018-12-06T22:50:53.933Z,0.40
2018-12-06T22:53:23.216Z,0.17
2018-12-06T22:55:52.319Z,0.20
2018-12-06T22:58:21.478Z,0.27
2018-12-06T23:00:56.863Z,0.70
2018-12-06T23:03:26.112Z,0.30
2018-12-06T23:05:56.443Z,0.20
2018-12-06T23:08:26.111Z,0.10
2018-12-06T23:10:55.912Z,0.40
2018-12-06T23:13:25.293Z,0.40
2018-12-06T23:15:54.510Z,0.20
2018-12-06T23:18:45.102Z,0.30
2018-12-06T23:21:31.794Z,0.33
2018-12-06T23:24:21.170Z,0.23
2018-12-06T23:27:11.666Z,0.10
2018-12-06T23:30:00.032Z,0.10
2018-12-06T23:32:48.451Z,0.10
2018-12-06T23:35:35.397Z,0.17
2018-12-06T23:38:05.849Z,0.17
2018-12-06T23:40:53.927Z,0.20
2018-12-06T23:43:46.529Z,0.20
2018-12-06T23:46:36.761Z,0.20
2018-12-06T23:49:06.058Z,0.20
2018-12-06T23:51:43.446Z,0.10
2018-12-06T23:54:29.519Z,0.20
2018-12-06T23:57:18.603Z,0.30
